sensor_id;sensor_type;location;lat;lon;timestamp;pressure;altitude;pressure_sealevel;temperature;humidity
13027;BME280;6580;42.680;23.324;2024-01-07T00:01:46;93838.16;;;6.63;100.00
13027;BME280;6580;42.680;23.324;2024-01-07T00:04:16;93858.31;;;6.56;100.00
13027;BME280;6580;42.680;23.324;2024-01-07T00:06:45;93847.88;;;6.78;100.00
13027;BME280;6580;42.680;23.324;2024-01-07T00:09:13;93841.81;;;6.54;100.00
13027;BME280;6580;42.680;23.324;2024-01-07T00:11:40;93838.44;;;6.76;100.00
13027;BME280;6580;42.680;23.324;2024-01-07T00:14:08;93830.88;;;6.73;100.00
13027;BME280;6580;42.680;23.324;2024-01-07T00:16:35;93826.09;;;6.52;100.00
13027;BME280;6580;42.680;23.324;2024-01-07T00:19:02;93826.19;;;6.75;100.00
13027;BME280;6580;42.680;23.324;2024-01-07T00:21:30;93826.28;;;6.43;100.00
13027;BME280;6580;42.680;23.324;2024-01-07T00:23:57;93819.00;;;6.45;100.00
13027;BME280;6580;42.680;23.324;2024-01-07T00:26:24;93822.31;;;6.47;100.00
13027;BME280;6580;42.680;23.324;2024-01-07T00:28:51;93824.25;;;6.61;100.00
13027;BME280;6580;42.680;23.324;2024-01-07T00:31:21;93821.97;;;6.50;100.00
13027;BME280;6580;42.680;23.324;2024-01-07T00:33:47;93805.44;;;6.40;100.00
13027;BME280;6580;42.680;23.324;2024-01-07T00:36:15;93791.25;;;6.49;100.00
13027;BME280;6580;42.680;23.324;2024-01-07T00:38:45;93774.09;;;6.21;100.00
13027;BME280;6580;42.680;23.324;2024-01-07T00:41:15;93784.19;;;6.02;100.00
13027;BME280;6580;42.680;23.324;2024-01-07T00:43:42;93787.00;;;6.00;100.00
13027;BME280;6580;42.680;23.324;2024-01-07T00:46:09;93794.38;;;6.52;100.00
13027;BME280;6580;42.680;23.324;2024-01-07T00:48:35;93780.69;;;6.33;100.00
13027;BME280;6580;42.680;23.324;2024-01-07T00:51:03;93773.25;;;6.28;100.00
13027;BME280;6580;42.680;23.324;2024-01-07T00:53:30;93762.72;;;6.20;100.00
13027;BME280;6580;42.680;23.324;2024-01-07T00:55:59;93755.03;;;6.49;100.00
13027;BME280;6580;42.680;23.324;2024-01-07T00:58:26;93752.09;;;6.36;100.00
13027;BME280;6580;42.680;23.324;2024-01-07T01:00:53;93754.09;;;6.34;100.00
13027;BME280;6580;42.680;23.324;2024-01-07T01:03:22;93751.28;;;6.36;100.00
13027;BME280;6580;42.680;23.324;2024-01-07T01:05:49;93746.69;;;6.14;100.00
13027;BME280;6580;42.680;23.324;2024-01-07T01:08:16;93748.34;;;6.15;100.00
13027;BME280;6580;42.680;23.324;2024-01-07T01:10:45;93747.66;;;6.29;100.00
13027;BME280;6580;42.680;23.324;2024-01-07T01:13:13;93736.03;;;6.46;100.00
13027;BME280;6580;42.680;23.324;2024-01-07T01:15:40;93728.41;;;6.59;100.00
13027;BME280;6580;42.680;23.324;2024-01-07T01:18:07;93718.41;;;6.77;100.00
13027;BME280;6580;42.680;23.324;2024-01-07T01:20:34;93719.78;;;6.65;100.00
13027;BME280;6580;42.680;23.324;2024-01-07T01:23:01;93715.16;;;6.59;100.00
13027;BME280;6580;42.680;23.324;2024-01-07T01:25:28;93698.28;;;6.68;100.00
13027;BME280;6580;42.680;23.324;2024-01-07T01:27:56;93693.16;;;6.66;100.00
13027;BME280;6580;42.680;23.324;2024-01-07T01:30:26;93676.72;;;6.79;100.00
13027;BME280;6580;42.680;23.324;2024-01-07T01:32:57;93670.97;;;6.75;100.00
13027;BME280;6580;42.680;23.324;2024-01-07T01:35:24;93665.03;;;6.73;100.00
13027;BME280;6580;42.680;23.324;2024-01-07T01:37:51;93665.28;;;6.86;100.00
13027;BME280;6580;42.680;23.324;2024-01-07T01:40:20;93660.50;;;6.51;100.00
13027;BME280;6580;42.680;23.324;2024-01-07T01:42:47;93650.59;;;6.84;100.00
13027;BME280;6580;42.680;23.324;2024-01-07T01:45:14;93649.28;;;6.80;100.00
13027;BME280;6580;42.680;23.324;2024-01-07T01:47:42;93644.69;;;6.74;100.00
13027;BME280;6580;42.680;23.324;2024-01-07T01:50:10;93640.41;;;6.73;100.00
13027;BME280;6580;42.680;23.324;2024-01-07T01:52:38;93623.94;;;6.85;100.00
13027;BME280;6580;42.680;23.324;2024-01-07T01:55:06;93614.97;;;6.72;100.00
13027;BME280;6580;42.680;23.324;2024-01-07T01:57:33;93611.31;;;6.73;100.00
13027;BME280;6580;42.680;23.324;2024-01-07T02:00:02;93616.63;;;6.65;100.00
13027;BME280;6580;42.680;23.324;2024-01-07T02:02:30;93612.00;;;6.36;100.00
13027;BME280;6580;42.680;23.324;2024-01-07T02:05:01;93607.69;;;6.35;100.00
13027;BME280;6580;42.680;23.324;2024-01-07T02:07:30;93616.72;;;6.49;100.00
13027;BME280;6580;42.680;23.324;2024-01-07T02:09:57;93621.28;;;6.63;100.00
13027;BME280;6580;42.680;23.324;2024-01-07T02:12:24;93621.28;;;6.63;100.00
13027;BME280;6580;42.680;23.324;2024-01-07T02:14:51;93620.69;;;6.53;100.00
13027;BME280;6580;42.680;23.324;2024-01-07T02:17:19;93601.22;;;6.38;100.00
13027;BME280;6580;42.680;23.324;2024-01-07T02:19:46;93597.25;;;6.42;100.00
13027;BME280;6580;42.680;23.324;2024-01-07T02:22:14;93573.31;;;6.43;100.00
13027;BME280;6580;42.680;23.324;2024-01-07T02:24:43;93570.56;;;6.59;100.00
13027;BME280;6580;42.680;23.324;2024-01-07T02:27:10;93554.69;;;6.59;100.00
13027;BME280;6580;42.680;23.324;2024-01-07T02:29:37;93530.94;;;6.74;100.00
13027;BME280;6580;42.680;23.324;2024-01-07T02:32:05;93528.13;;;6.75;100.00
13027;BME280;6580;42.680;23.324;2024-01-07T02:34:32;93529.47;;;6.71;100.00
13027;BME280;6580;42.680;23.324;2024-01-07T02:36:59;93528.28;;;6.74;100.00
13027;BME280;6580;42.680;23.324;2024-01-07T02:39:26;93523.44;;;6.63;100.00
13027;BME280;6580;42.680;23.324;2024-01-07T02:41:54;93530.41;;;6.56;100.00
13027;BME280;6580;42.680;23.324;2024-01-07T02:44:21;93530.41;;;6.56;100.00
13027;BME280;6580;42.680;23.324;2024-01-07T02:46:48;93532.59;;;6.75;100.00
13027;BME280;6580;42.680;23.324;2024-01-07T02:49:15;93530.78;;;6.75;100.00
13027;BME280;6580;42.680;23.324;2024-01-07T02:51:42;93525.03;;;6.72;100.00
13027;BME280;6580;42.680;23.324;2024-01-07T02:54:11;93536.38;;;6.80;100.00
13027;BME280;6580;42.680;23.324;2024-01-07T02:56:39;93530.31;;;6.94;100.00
13027;BME280;6580;42.680;23.324;2024-01-07T02:59:07;93528.19;;;6.90;100.00
13027;BME280;6580;42.680;23.324;2024-01-07T03:01:34;93530.78;;;6.75;100.00
13027;BME280;6580;42.680;23.324;2024-01-07T03:04:05;93549.13;;;6.99;100.00
13027;BME280;6580;42.680;23.324;2024-01-07T03:06:35;93549.63;;;6.95;100.00
13027;BME280;6580;42.680;23.324;2024-01-07T03:09:02;93546.50;;;7.13;100.00
13027;BME280;6580;42.680;23.324;2024-01-07T03:11:29;93540.94;;;7.08;100.00
13027;BME280;6580;42.680;23.324;2024-01-07T03:13:56;93553.28;;;6.94;100.00
13027;BME280;6580;42.680;23.324;2024-01-07T03:16:25;93559.09;;;6.89;100.00
13027;BME280;6580;42.680;23.324;2024-01-07T03:18:52;93560.09;;;7.10;100.00
13027;BME280;6580;42.680;23.324;2024-01-07T03:21:22;93577.94;;;6.94;100.00
13027;BME280;6580;42.680;23.324;2024-01-07T03:23:50;93574.63;;;6.92;100.00
13027;BME280;6580;42.680;23.324;2024-01-07T03:26:18;93580.94;;;6.91;100.00
13027;BME280;6580;42.680;23.324;2024-01-07T03:28:45;93577.03;;;7.02;100.00
13027;BME280;6580;42.680;23.324;2024-01-07T03:31:18;93578.50;;;7.04;100.00
13027;BME280;6580;42.680;23.324;2024-01-07T03:33:47;93565.38;;;7.10;100.00
13027;BME280;6580;42.680;23.324;2024-01-07T03:36:15;93573.31;;;7.10;100.00
13027;BME280;6580;42.680;23.324;2024-01-07T03:38:42;93564.88;;;7.15;100.00
13027;BME280;6580;42.680;23.324;2024-01-07T03:41:16;93573.91;;;7.20;100.00
13027;BME280;6580;42.680;23.324;2024-01-07T03:43:43;93570.38;;;7.28;100.00
13027;BME280;6580;42.680;23.324;2024-01-07T03:46:10;93573.84;;;7.28;100.00
13027;BME280;6580;42.680;23.324;2024-01-07T03:48:37;93559.34;;;7.39;100.00
13027;BME280;6580;42.680;23.324;2024-01-07T03:51:06;93549.78;;;7.52;100.00
13027;BME280;6580;42.680;23.324;2024-01-07T03:53:33;93551.09;;;7.71;100.00
13027;BME280;6580;42.680;23.324;2024-01-07T03:56:00;93563.44;;;7.78;100.00
13027;BME280;6580;42.680;23.324;2024-01-07T03:58:27;93561.97;;;7.76;100.00
13027;BME280;6580;42.680;23.324;2024-01-07T04:00:54;93549.09;;;7.73;100.00
13027;BME280;6580;42.680;23.324;2024-01-07T04:03:21;93551.72;;;7.58;100.00
13027;BME280;6580;42.680;23.324;2024-01-07T04:05:48;93550.81;;;7.66;100.00
13027;BME280;6580;42.680;23.324;2024-01-07T04:08:16;93543.91;;;7.79;100.00
13027;BME280;6580;42.680;23.324;2024-01-07T04:10:43;93543.16;;;8.00;100.00
13027;BME280;6580;42.680;23.324;2024-01-07T04:13:10;93535.28;;;7.92;100.00
13027;BME280;6580;42.680;23.324;2024-01-07T04:15:37;93531.09;;;7.97;100.00
13027;BME280;6580;42.680;23.324;2024-01-07T04:18:05;93523.97;;;7.98;100.00
13027;BME280;6580;42.680;23.324;2024-01-07T04:20:31;93413.91;;;7.23;100.00
13027;BME280;6580;42.680;23.324;2024-01-07T04:22:58;93529.81;;;7.79;100.00
13027;BME280;6580;42.680;23.324;2024-01-07T04:25:27;93533.09;;;7.81;100.00
13027;BME280;6580;42.680;23.324;2024-01-07T04:27:54;93537.88;;;7.71;100.00
13027;BME280;6580;42.680;23.324;2024-01-07T04:30:22;93531.09;;;7.83;100.00
13027;BME280;6580;42.680;23.324;2024-01-07T04:32:49;93528.09;;;8.00;100.00
13027;BME280;6580;42.680;23.324;2024-01-07T04:35:16;93524.53;;;8.07;100.00
13027;BME280;6580;42.680;23.324;2024-01-07T04:37:43;93523.06;;;7.91;100.00
13027;BME280;6580;42.680;23.324;2024-01-07T04:40:11;93502.84;;;8.04;100.00
13027;BME280;6580;42.680;23.324;2024-01-07T04:42:40;93493.25;;;8.03;100.00
13027;BME280;6580;42.680;23.324;2024-01-07T04:45:07;93497.53;;;8.04;100.00
13027;BME280;6580;42.680;23.324;2024-01-07T04:47:34;93500.31;;;7.96;100.00
13027;BME280;6580;42.680;23.324;2024-01-07T04:50:02;93504.97;;;8.08;100.00
13027;BME280;6580;42.680;23.324;2024-01-07T04:52:31;93516.41;;;7.80;100.00
13027;BME280;6580;42.680;23.324;2024-01-07T04:54:58;93520.22;;;7.63;100.00
13027;BME280;6580;42.680;23.324;2024-01-07T04:57:25;93521.06;;;7.78;100.00
13027;BME280;6580;42.680;23.324;2024-01-07T04:59:54;93537.78;;;7.93;100.00
13027;BME280;6580;42.680;23.324;2024-01-07T05:02:21;93536.41;;;7.97;100.00
13027;BME280;6580;42.680;23.324;2024-01-07T05:04:48;93509.06;;;7.97;100.00
13027;BME280;6580;42.680;23.324;2024-01-07T05:07:15;93530.91;;;7.84;100.00
13027;BME280;6580;42.680;23.324;2024-01-07T05:09:42;93521.06;;;7.78;100.00
13027;BME280;6580;42.680;23.324;2024-01-07T05:12:09;93497.84;;;7.80;100.00
13027;BME280;6580;42.680;23.324;2024-01-07T05:14:36;93495.72;;;7.90;100.00
13027;BME280;6580;42.680;23.324;2024-01-07T05:17:06;93497.22;;;7.78;100.00
13027;BME280;6580;42.680;23.324;2024-01-07T05:19:33;93502.88;;;7.75;100.00
13027;BME280;6580;42.680;23.324;2024-01-07T05:22:00;93512.38;;;7.70;100.00
13027;BME280;6580;42.680;23.324;2024-01-07T05:24:27;93518.31;;;7.72;100.00
13027;BME280;6580;42.680;23.324;2024-01-07T05:26:55;93515.00;;;7.84;100.00
13027;BME280;6580;42.680;23.324;2024-01-07T05:29:22;93522.16;;;7.84;100.00
13027;BME280;6580;42.680;23.324;2024-01-07T05:31:48;93518.00;;;7.96;100.00
13027;BME280;6580;42.680;23.324;2024-01-07T05:34:17;93507.88;;;7.99;100.00
13027;BME280;6580;42.680;23.324;2024-01-07T05:36:44;93492.16;;;7.83;100.00
13027;BME280;6580;42.680;23.324;2024-01-07T05:39:12;93509.34;;;7.87;100.00
13027;BME280;6580;42.680;23.324;2024-01-07T05:41:39;93482.03;;;7.72;100.00
13027;BME280;6580;42.680;23.324;2024-01-07T05:44:07;93511.00;;;7.88;100.00
13027;BME280;6580;42.680;23.324;2024-01-07T05:46:38;93479.09;;;7.82;100.00
13027;BME280;6580;42.680;23.324;2024-01-07T05:49:05;93474.44;;;7.84;100.00
13027;BME280;6580;42.680;23.324;2024-01-07T05:51:37;93500.56;;;8.01;100.00
13027;BME280;6580;42.680;23.324;2024-01-07T05:54:04;93497.56;;;7.75;100.00
13027;BME280;6580;42.680;23.324;2024-01-07T05:56:31;93513.19;;;7.70;100.00
13027;BME280;6580;42.680;23.324;2024-01-07T05:58:58;93501.59;;;7.86;100.00
13027;BME280;6580;42.680;23.324;2024-01-07T06:01:27;93517.13;;;7.89;100.00
13027;BME280;6580;42.680;23.324;2024-01-07T06:03:53;93529.81;;;7.50;100.00
13027;BME280;6580;42.680;23.324;2024-01-07T06:06:20;93502.69;;;7.62;100.00
13027;BME280;6580;42.680;23.324;2024-01-07T06:08:49;93498.94;;;7.71;100.00
13027;BME280;6580;42.680;23.324;2024-01-07T06:11:16;93491.34;;;7.83;100.00
13027;BME280;6580;42.680;23.324;2024-01-07T06:13:46;93486.41;;;7.94;100.00
13027;BME280;6580;42.680;23.324;2024-01-07T06:16:13;93477.72;;;8.00;100.00
13027;BME280;6580;42.680;23.324;2024-01-07T06:18:40;93498.75;;;7.87;100.00
13027;BME280;6580;42.680;23.324;2024-01-07T06:21:07;93493.53;;;7.94;100.00
13027;BME280;6580;42.680;23.324;2024-01-07T06:23:36;93479.31;;;7.80;100.00
13027;BME280;6580;42.680;23.324;2024-01-07T06:26:06;93485.97;;;7.91;100.00
13027;BME280;6580;42.680;23.324;2024-01-07T06:28:34;93485.56;;;7.94;100.00
13027;BME280;6580;42.680;23.324;2024-01-07T06:31:02;93506.41;;;7.97;100.00
13027;BME280;6580;42.680;23.324;2024-01-07T06:33:30;93487.50;;;8.00;100.00
13027;BME280;6580;42.680;23.324;2024-01-07T06:35:57;93503.75;;;7.97;100.00
13027;BME280;6580;42.680;23.324;2024-01-07T06:38:23;93510.53;;;7.85;100.00
13027;BME280;6580;42.680;23.324;2024-01-07T06:40:50;93518.13;;;7.73;100.00
13027;BME280;6580;42.680;23.324;2024-01-07T06:43:21;93521.13;;;7.85;100.00
13027;BME280;6580;42.680;23.324;2024-01-07T06:45:47;93520.22;;;8.06;100.00
13027;BME280;6580;42.680;23.324;2024-01-07T06:48:14;93534.84;;;7.88;100.00
13027;BME280;6580;42.680;23.324;2024-01-07T06:50:41;93528.34;;;8.05;100.00
13027;BME280;6580;42.680;23.324;2024-01-07T06:53:09;93540.06;;;8.25;100.00
13027;BME280;6580;42.680;23.324;2024-01-07T06:55:36;93514.44;;;8.32;100.00
13027;BME280;6580;42.680;23.324;2024-01-07T06:58:03;93517.97;;;8.18;100.00
13027;BME280;6580;42.680;23.324;2024-01-07T07:00:31;93525.50;;;8.21;100.00
13027;BME280;6580;42.680;23.324;2024-01-07T07:02:58;93528.63;;;8.10;100.00
13027;BME280;6580;42.680;23.324;2024-01-07T07:05:25;93530.56;;;8.16;100.00
13027;BME280;6580;42.680;23.324;2024-01-07T07:07:52;93531.53;;;8.15;100.00
13027;BME280;6580;42.680;23.324;2024-01-07T07:10:19;93529.81;;;8.36;100.00
13027;BME280;6580;42.680;23.324;2024-01-07T07:12:46;93528.38;;;8.19;100.00
13027;BME280;6580;42.680;23.324;2024-01-07T07:15:13;93510.94;;;8.46;100.00
13027;BME280;6580;42.680;23.324;2024-01-07T07:17:41;93490.84;;;8.58;100.00
13027;BME280;6580;42.680;23.324;2024-01-07T07:20:09;93503.63;;;8.48;100.00
13027;BME280;6580;42.680;23.324;2024-01-07T07:22:36;93503.75;;;8.61;100.00
13027;BME280;6580;42.680;23.324;2024-01-07T07:25:03;93484.22;;;8.68;100.00
13027;BME280;6580;42.680;23.324;2024-01-07T07:27:31;93486.78;;;8.76;100.00
13027;BME280;6580;42.680;23.324;2024-01-07T07:29:57;93495.28;;;9.13;100.00
13027;BME280;6580;42.680;23.324;2024-01-07T07:32:25;93499.84;;;9.19;100.00
13027;BME280;6580;42.680;23.324;2024-01-07T07:34:53;93502.13;;;9.02;100.00
13027;BME280;6580;42.680;23.324;2024-01-07T07:37:20;93507.53;;;9.14;100.00
13027;BME280;6580;42.680;23.324;2024-01-07T07:39:47;93476.25;;;9.10;100.00
13027;BME280;6580;42.680;23.324;2024-01-07T07:42:15;93506.22;;;9.52;100.00
13027;BME280;6580;42.680;23.324;2024-01-07T07:44:41;93495.59;;;9.52;100.00
13027;BME280;6580;42.680;23.324;2024-01-07T07:47:09;93489.09;;;9.55;100.00
13027;BME280;6580;42.680;23.324;2024-01-07T07:49:37;93476.53;;;9.42;100.00
13027;BME280;6580;42.680;23.324;2024-01-07T07:52:07;93480.16;;;9.62;100.00
13027;BME280;6580;42.680;23.324;2024-01-07T07:54:34;93476.94;;;9.73;100.00
13027;BME280;6580;42.680;23.324;2024-01-07T07:57:03;93500.78;;;9.60;100.00
13027;BME280;6580;42.680;23.324;2024-01-07T07:59:30;93485.22;;;9.91;100.00
13027;BME280;6580;42.680;23.324;2024-01-07T08:01:57;93479.47;;;9.81;100.00
13027;BME280;6580;42.680;23.324;2024-01-07T08:04:24;93473.47;;;9.73;100.00
13027;BME280;6580;42.680;23.324;2024-01-07T08:06:52;93470.91;;;9.92;100.00
13027;BME280;6580;42.680;23.324;2024-01-07T08:09:20;93469.28;;;9.91;100.00
13027;BME280;6580;42.680;23.324;2024-01-07T08:11:47;93477.41;;;9.83;100.00
13027;BME280;6580;42.680;23.324;2024-01-07T08:14:14;93474.19;;;9.94;100.00
13027;BME280;6580;42.680;23.324;2024-01-07T08:16:41;93477.38;;;10.10;100.00
13027;BME280;6580;42.680;23.324;2024-01-07T08:19:08;93466.84;;;9.96;100.00
13027;BME280;6580;42.680;23.324;2024-01-07T08:21:38;93469.59;;;10.09;100.00
13027;BME280;6580;42.680;23.324;2024-01-07T08:24:05;93474.81;;;10.30;100.00
13027;BME280;6580;42.680;23.324;2024-01-07T08:26:34;93469.31;;;10.38;100.00
13027;BME280;6580;42.680;23.324;2024-01-07T08:29:00;93474.84;;;10.43;100.00
13027;BME280;6580;42.680;23.324;2024-01-07T08:31:28;93475.47;;;10.45;100.00
13027;BME280;6580;42.680;23.324;2024-01-07T08:33:55;93481.66;;;10.52;100.00
13027;BME280;6580;42.680;23.324;2024-01-07T08:36:22;93463.59;;;10.41;100.00
13027;BME280;6580;42.680;23.324;2024-01-07T08:38:49;93458.47;;;10.33;100.00
13027;BME280;6580;42.680;23.324;2024-01-07T08:41:16;93473.28;;;10.55;100.00
13027;BME280;6580;42.680;23.324;2024-01-07T08:43:44;93481.25;;;10.55;100.00
13027;BME280;6580;42.680;23.324;2024-01-07T08:46:12;93473.59;;;10.32;100.00
13027;BME280;6580;42.680;23.324;2024-01-07T08:48:40;93472.81;;;10.45;100.00
13027;BME280;6580;42.680;23.324;2024-01-07T08:51:07;93473.22;;;10.42;100.00
13027;BME280;6580;42.680;23.324;2024-01-07T08:53:34;93467.84;;;10.29;100.00
13027;BME280;6580;42.680;23.324;2024-01-07T08:56:01;93469.16;;;10.52;100.00
13027;BME280;6580;42.680;23.324;2024-01-07T08:58:28;93431.75;;;10.80;100.00
13027;BME280;6580;42.680;23.324;2024-01-07T09:00:56;93455.34;;;11.34;100.00
13027;BME280;6580;42.680;23.324;2024-01-07T09:03:23;93442.22;;;11.20;100.00
13027;BME280;6580;42.680;23.324;2024-01-07T09:05:50;93457.41;;;11.26;100.00
13027;BME280;6580;42.680;23.324;2024-01-07T09:08:17;93460.25;;;11.05;100.00
13027;BME280;6580;42.680;23.324;2024-01-07T09:10:44;93450.84;;;10.96;100.00
13027;BME280;6580;42.680;23.324;2024-01-07T09:13:11;93452.06;;;11.39;100.00
13027;BME280;6580;42.680;23.324;2024-01-07T09:15:38;93456.78;;;11.30;100.00
13027;BME280;6580;42.680;23.324;2024-01-07T09:18:07;93459.25;;;11.38;100.00
13027;BME280;6580;42.680;23.324;2024-01-07T09:20:34;93460.69;;;11.28;100.00
13027;BME280;6580;42.680;23.324;2024-01-07T09:23:01;93456.81;;;11.56;100.00
13027;BME280;6580;42.680;23.324;2024-01-07T09:25:28;93460.25;;;11.11;100.00
13027;BME280;6580;42.680;23.324;2024-01-07T09:27:55;93461.53;;;11.54;100.00
13027;BME280;6580;42.680;23.324;2024-01-07T09:30:22;93441.75;;;12.01;100.00
13027;BME280;6580;42.680;23.324;2024-01-07T09:32:49;93449.94;;;12.12;100.00
13027;BME280;6580;42.680;23.324;2024-01-07T09:35:17;93441.66;;;12.20;100.00
13027;BME280;6580;42.680;23.324;2024-01-07T09:37:44;93441.25;;;12.23;100.00
13027;BME280;6580;42.680;23.324;2024-01-07T09:40:12;93434.63;;;12.38;100.00
13027;BME280;6580;42.680;23.324;2024-01-07T09:42:39;93427.91;;;12.67;100.00
13027;BME280;6580;42.680;23.324;2024-01-07T09:45:07;93435.50;;;12.26;100.00
13027;BME280;6580;42.680;23.324;2024-01-07T09:47:35;93434.41;;;12.40;100.00
13027;BME280;6580;42.680;23.324;2024-01-07T09:50:02;93431.50;;;12.48;100.00
13027;BME280;6580;42.680;23.324;2024-01-07T09:52:32;93436.34;;;12.64;100.00
13027;BME280;6580;42.680;23.324;2024-01-07T09:55:03;93438.53;;;12.80;100.00
13027;BME280;6580;42.680;23.324;2024-01-07T09:57:30;93437.56;;;13.05;100.00
13027;BME280;6580;42.680;23.324;2024-01-07T09:59:57;93439.16;;;13.13;100.00
13027;BME280;6580;42.680;23.324;2024-01-07T10:02:25;93426.03;;;13.11;100.00
13027;BME280;6580;42.680;23.324;2024-01-07T10:04:52;93417.03;;;13.06;100.00
13027;BME280;6580;42.680;23.324;2024-01-07T10:07:19;93430.13;;;13.38;100.00
13027;BME280;6580;42.680;23.324;2024-01-07T10:09:47;93422.59;;;13.28;100.00
13027;BME280;6580;42.680;23.324;2024-01-07T10:12:14;93413.47;;;13.60;100.00
13027;BME280;6580;42.680;23.324;2024-01-07T10:14:42;93405.28;;;13.55;100.00
13027;BME280;6580;42.680;23.324;2024-01-07T10:17:14;93397.94;;;13.26;100.00
13027;BME280;6580;42.680;23.324;2024-01-07T10:19:43;93397.41;;;13.42;100.00
13027;BME280;6580;42.680;23.324;2024-01-07T10:22:12;93385.66;;;13.43;100.00
13027;BME280;6580;42.680;23.324;2024-01-07T10:24:40;93396.72;;;13.47;100.00
13027;BME280;6580;42.680;23.324;2024-01-07T10:27:11;93371.59;;;13.30;98.14
13027;BME280;6580;42.680;23.324;2024-01-07T10:29:38;93379.19;;;13.33;98.05
13027;BME280;6580;42.680;23.324;2024-01-07T10:32:06;93372.50;;;13.18;97.36
13027;BME280;6580;42.680;23.324;2024-01-07T10:34:34;93369.81;;;13.42;96.63
13027;BME280;6580;42.680;23.324;2024-01-07T10:37:02;93364.59;;;14.07;91.91
13027;BME280;6580;42.680;23.324;2024-01-07T10:39:30;93352.06;;;14.84;87.37
13027;BME280;6580;42.680;23.324;2024-01-07T10:41:57;93354.44;;;14.63;86.47
13027;BME280;6580;42.680;23.324;2024-01-07T10:44:29;93349.72;;;14.47;85.73
13027;BME280;6580;42.680;23.324;2024-01-07T10:46:56;93348.34;;;14.26;86.20
13027;BME280;6580;42.680;23.324;2024-01-07T10:49:27;93358.56;;;15.18;81.55
13027;BME280;6580;42.680;23.324;2024-01-07T10:52:02;93343.72;;;15.04;80.25
13027;BME280;6580;42.680;23.324;2024-01-07T10:54:31;93352.53;;;15.33;75.96
13027;BME280;6580;42.680;23.324;2024-01-07T10:57:00;93329.66;;;14.02;78.76
13027;BME280;6580;42.680;23.324;2024-01-07T10:59:32;93357.50;;;14.37;80.11
13027;BME280;6580;42.680;23.324;2024-01-07T11:02:01;93348.56;;;14.25;80.48
13027;BME280;6580;42.680;23.324;2024-01-07T11:04:36;93354.88;;;14.60;78.21
13027;BME280;6580;42.680;23.324;2024-01-07T11:07:13;93337.00;;;16.04;69.57
13027;BME280;6580;42.680;23.324;2024-01-07T11:09:54;93330.03;;;16.54;66.40
13027;BME280;6580;42.680;23.324;2024-01-07T11:12:23;93349.63;;;15.69;70.79
13027;BME280;6580;42.680;23.324;2024-01-07T11:14:52;93351.50;;;14.94;75.35
13027;BME280;6580;42.680;23.324;2024-01-07T11:17:41;93358.63;;;15.40;74.29
13027;BME280;6580;42.680;23.324;2024-01-07T11:20:19;93338.13;;;17.15;63.79
13027;BME280;6580;42.680;23.324;2024-01-07T11:22:47;93351.63;;;15.39;72.87
13027;BME280;6580;42.680;23.324;2024-01-07T11:25:30;93356.09;;;15.05;79.30
13027;BME280;6580;42.680;23.324;2024-01-07T11:27:58;93344.91;;;16.33;72.40
13027;BME280;6580;42.680;23.324;2024-01-07T11:30:26;93348.19;;;16.91;68.05
13027;BME280;6580;42.680;23.324;2024-01-07T11:32:57;93331.19;;;15.84;70.72
13027;BME280;6580;42.680;23.324;2024-01-07T11:35:56;93346.22;;;16.31;71.06
13027;BME280;6580;42.680;23.324;2024-01-07T11:38:23;93335.88;;;17.72;61.85
13027;BME280;6580;42.680;23.324;2024-01-07T11:40:50;93337.91;;;16.72;62.77
13027;BME280;6580;42.680;23.324;2024-01-07T11:43:18;93341.69;;;16.09;67.04
13027;BME280;6580;42.680;23.324;2024-01-07T11:45:49;93346.19;;;15.17;71.00
13027;BME280;6580;42.680;23.324;2024-01-07T11:48:16;93346.19;;;14.64;73.39
13027;BME280;6580;42.680;23.324;2024-01-07T11:50:43;93357.78;;;13.93;79.94
13027;BME280;6580;42.680;23.324;2024-01-07T11:53:11;93356.13;;;13.56;84.81
13027;BME280;6580;42.680;23.324;2024-01-07T11:55:38;93356.38;;;13.91;82.58
13027;BME280;6580;42.680;23.324;2024-01-07T11:58:05;93363.41;;;14.03;83.04
13027;BME280;6580;42.680;23.324;2024-01-07T12:00:32;93354.66;;;13.78;85.59
13027;BME280;6580;42.680;23.324;2024-01-07T12:03:01;93353.63;;;13.97;84.92
13027;BME280;6580;42.680;23.324;2024-01-07T12:05:29;93347.88;;;14.29;82.77
13027;BME280;6580;42.680;23.324;2024-01-07T12:07:56;93330.66;;;14.08;84.16
13027;BME280;6580;42.680;23.324;2024-01-07T12:10:23;93344.66;;;13.49;87.23
13027;BME280;6580;42.680;23.324;2024-01-07T12:12:52;93353.63;;;13.13;91.84
13027;BME280;6580;42.680;23.324;2024-01-07T12:15:20;93349.63;;;13.04;93.00
13027;BME280;6580;42.680;23.324;2024-01-07T12:17:55;93345.66;;;12.51;98.82
13027;BME280;6580;42.680;23.324;2024-01-07T12:20:25;93361.50;;;12.46;100.00
13027;BME280;6580;42.680;23.324;2024-01-07T12:22:55;93361.97;;;12.67;100.00
13027;BME280;6580;42.680;23.324;2024-01-07T12:25:23;93367.16;;;12.56;100.00
13027;BME280;6580;42.680;23.324;2024-01-07T12:27:51;93366.06;;;12.70;100.00
13027;BME280;6580;42.680;23.324;2024-01-07T12:30:20;93363.81;;;12.67;100.00
13027;BME280;6580;42.680;23.324;2024-01-07T12:32:47;93369.84;;;12.87;100.00
13027;BME280;6580;42.680;23.324;2024-01-07T12:35:14;93367.78;;;12.89;99.70
13027;BME280;6580;42.680;23.324;2024-01-07T12:37:43;93363.13;;;12.78;100.00
13027;BME280;6580;42.680;23.324;2024-01-07T12:40:11;93354.72;;;12.74;100.00
13027;BME280;6580;42.680;23.324;2024-01-07T12:42:39;93360.16;;;12.61;100.00
13027;BME280;6580;42.680;23.324;2024-01-07T12:45:11;93367.16;;;12.56;100.00
13027;BME280;6580;42.680;23.324;2024-01-07T12:47:40;93369.16;;;12.67;100.00
13027;BME280;6580;42.680;23.324;2024-01-07T12:50:08;93360.88;;;12.75;100.00
13027;BME280;6580;42.680;23.324;2024-01-07T12:52:37;93356.59;;;13.05;98.73
13027;BME280;6580;42.680;23.324;2024-01-07T12:55:07;93356.28;;;12.57;98.66
13027;BME280;6580;42.680;23.324;2024-01-07T12:57:34;93372.50;;;12.56;100.00
13027;BME280;6580;42.680;23.324;2024-01-07T13:00:02;93373.19;;;12.82;98.70
13027;BME280;6580;42.680;23.324;2024-01-07T13:02:32;93372.69;;;12.61;99.50